L'image de la webcam se met à jour toutes les 30s.
La jauge météo se met à jour toutes les 10s d'après les données envoyées par la station météo du club.
Les graphiques se mettent à jour toutes les 5min et ne s'affichent que si la station est en ligne
Autres webcams locales
Surfaces en herbe praticables

MAJ le 14/07/2024 11:00 DDE
METAR de LFRD (Source NOAA)
LFRD 202230Z AUTO 19007KT 9999 BKN012 OVC028 17/17 Q1008 TEMPO 3000 SHRA BKN008 BKN020CB BECMG 32010KT

TAF de LFRD (Source NOAA)
TAF LFRD 201700Z 2018/2118 24010KT 9999 BKN030 TEMPO 2018/2020 3000 SHRA BKN008 BKN020CB PROB40 TEMPO 2018/2020 1200 TSRA PROB40 TEMPO 2020/2102 3000 SHRA BKN008 BKN020CB BECMG 2020/2022 VRB05KT BECMG 2100/2102 32010KT BKN012 TEMPO 2102/2108 BKN008 BECMG 2108/2110 BKN020
Ayez la webcam en fond d'écran de votre téléphone ou de votre tablette Android avec l'appli du club.